createdAt,value
2023-03-28T00:01:32.532Z,1.40
2023-03-28T00:04:01.727Z,1.17
2023-03-28T00:06:31.423Z,1.40
2023-03-28T00:08:59.623Z,1.40
2023-03-28T00:11:27.387Z,1.63
2023-03-28T00:14:00.190Z,1.30
2023-03-28T00:16:32.021Z,2.10
2023-03-28T00:19:03.005Z,1.40
2023-03-28T00:21:32.960Z,1.50
2023-03-28T00:24:02.428Z,1.53
2023-03-28T00:26:32.234Z,1.20
2023-03-28T00:29:01.387Z,1.50
2023-03-28T00:31:30.274Z,1.47
2023-03-28T00:33:58.113Z,1.80
2023-03-28T00:36:29.124Z,1.50
2023-03-28T00:38:57.932Z,1.10
2023-03-28T00:41:31.000Z,1.60
2023-03-28T00:43:59.980Z,1.57
2023-03-28T00:46:31.160Z,1.53
2023-03-28T00:49:00.449Z,1.70
2023-03-28T00:51:32.990Z,1.60
2023-03-28T00:54:02.124Z,1.43
2023-03-28T00:56:32.578Z,1.30
2023-03-28T00:59:03.544Z,1.60
2023-03-28T01:01:31.395Z,1.47
2023-03-28T01:04:02.885Z,1.10
2023-03-28T01:06:35.547Z,1.40
2023-03-28T01:09:06.520Z,1.20
2023-03-28T01:11:37.044Z,1.23
2023-03-28T01:14:07.156Z,0.93
2023-03-28T01:16:42.219Z,1.13
2023-03-28T01:19:15.642Z,1.10
2023-03-28T01:22:15.458Z,1.40
2023-03-28T01:25:06.117Z,1.00
2023-03-28T01:27:38.026Z,1.20
2023-03-28T01:30:28.277Z,1.00
2023-03-28T01:33:50.390Z,1.20
2023-03-28T01:36:52.794Z,1.30
2023-03-28T01:39:28.812Z,1.30
2023-03-28T01:42:00.268Z,1.40
2023-03-28T01:44:35.174Z,1.70
2023-03-28T01:47:07.921Z,1.47
2023-03-28T01:49:41.075Z,1.80
2023-03-28T01:52:18.998Z,1.70
2023-03-28T01:54:53.452Z,1.40
2023-03-28T01:57:26.071Z,1.10
2023-03-28T02:00:01.201Z,1.17
2023-03-28T02:02:34.867Z,1.20
2023-03-28T02:05:15.392Z,1.00
2023-03-28T02:07:46.326Z,1.00
2023-03-28T02:10:17.147Z,1.00
2023-03-28T02:12:54.435Z,1.10
2023-03-28T02:15:41.894Z,1.10
2023-03-28T02:18:29.735Z,1.30
2023-03-28T02:21:20.036Z,1.30
2023-03-28T02:24:10.061Z,1.57
2023-03-28T02:27:09.582Z,1.20
2023-03-28T02:29:47.870Z,1.30
2023-03-28T02:32:33.835Z,1.40
2023-03-28T02:35:03.420Z,1.50
2023-03-28T02:37:37.062Z,1.20
2023-03-28T02:40:16.678Z,1.43
2023-03-28T02:43:03.675Z,1.23
2023-03-28T02:45:54.396Z,1.40
2023-03-28T02:48:27.774Z,1.40
2023-03-28T02:51:08.733Z,1.40
2023-03-28T02:53:44.711Z,1.20
2023-03-28T02:56:19.397Z,1.20
2023-03-28T02:59:14.647Z,1.37
2023-03-28T03:01:42.449Z,1.50
2023-03-28T03:04:10.554Z,1.47
2023-03-28T03:06:39.036Z,1.43
2023-03-28T03:09:08.560Z,1.47
2023-03-28T03:11:37.944Z,1.50
2023-03-28T03:14:06.306Z,1.20
2023-03-28T03:16:34.800Z,1.40
2023-03-28T03:19:02.614Z,1.20
2023-03-28T03:21:30.518Z,1.83
2023-03-28T03:23:58.209Z,1.50
2023-03-28T03:26:26.531Z,1.17
2023-03-28T03:29:06.367Z,1.37
2023-03-28T03:31:35.186Z,1.23
2023-03-28T03:34:21.913Z,1.57
2023-03-28T03:36:56.169Z,1.50
2023-03-28T03:39:24.074Z,1.60
2023-03-28T03:41:52.262Z,1.37
2023-03-28T03:44:22.271Z,1.30
2023-03-28T03:46:51.641Z,1.37
2023-03-28T03:49:19.364Z,2.30
2023-03-28T03:51:47.235Z,2.40
2023-03-28T03:54:17.791Z,1.87
2023-03-28T03:56:45.994Z,2.10
2023-03-28T03:59:14.070Z,1.80
2023-03-28T04:01:44.187Z,1.90
2023-03-28T04:04:34.666Z,1.80
2023-03-28T04:07:11.595Z,1.73
2023-03-28T04:09:39.413Z,1.80
2023-03-28T04:12:08.726Z,1.93
2023-03-28T04:14:47.075Z,2.00
2023-03-28T04:17:35.320Z,2.50
2023-03-28T04:20:12.807Z,1.90
2023-03-28T04:23:02.228Z,1.90
2023-03-28T04:25:32.056Z,1.80
2023-03-28T04:28:16.211Z,1.80
2023-03-28T04:31:04.337Z,1.60
2023-03-28T04:33:53.722Z,2.10
2023-03-28T04:36:25.822Z,2.03
2023-03-28T04:39:02.676Z,2.07
2023-03-28T04:41:55.385Z,1.97
2023-03-28T04:44:30.637Z,2.40
2023-03-28T04:47:04.870Z,3.33
2023-03-28T04:49:34.495Z,2.90
2023-03-28T04:52:02.373Z,2.37
2023-03-28T04:54:30.475Z,3.80
2023-03-28T04:57:09.839Z,2.17
2023-03-28T04:59:52.204Z,2.20
2023-03-28T05:02:42.878Z,2.30
2023-03-28T05:05:15.696Z,1.90
2023-03-28T05:07:43.382Z,2.43
2023-03-28T05:10:14.094Z,2.33
2023-03-28T05:12:42.345Z,2.40
2023-03-28T05:15:11.823Z,2.50
2023-03-28T05:18:14.545Z,2.23
2023-03-28T05:20:43.711Z,2.57
2023-03-28T05:23:12.693Z,2.53
2023-03-28T05:25:42.960Z,2.57
2023-03-28T05:28:11.391Z,2.70
2023-03-28T05:30:48.387Z,2.30
2023-03-28T05:33:17.211Z,2.90
2023-03-28T05:35:48.164Z,3.33
2023-03-28T05:38:16.721Z,3.73
2023-03-28T05:40:50.247Z,3.30
2023-03-28T05:43:18.550Z,3.67
2023-03-28T05:45:47.616Z,3.40
2023-03-28T05:48:20.121Z,3.50
2023-03-28T05:50:50.495Z,3.20
2023-03-28T05:53:18.187Z,3.43
2023-03-28T05:55:46.047Z,4.10
2023-03-28T05:58:13.758Z,3.87
2023-03-28T06:00:44.599Z,3.87
2023-03-28T06:03:16.616Z,4.20
2023-03-28T06:05:45.918Z,4.10
2023-03-28T06:08:27.935Z,4.93
2023-03-28T06:11:01.489Z,4.37
2023-03-28T06:13:47.456Z,4.77
2023-03-28T06:16:15.723Z,5.10
2023-03-28T06:18:44.456Z,4.70
2023-03-28T06:21:12.265Z,4.93
2023-03-28T06:23:41.274Z,4.77
2023-03-28T06:26:18.845Z,4.40
2023-03-28T06:28:46.913Z,4.27
2023-03-28T06:31:31.973Z,3.80
2023-03-28T06:33:59.684Z,3.87
2023-03-28T06:36:28.234Z,3.90
2023-03-28T06:38:58.315Z,3.90
2023-03-28T06:41:27.815Z,3.23
2023-03-28T06:43:55.663Z,3.43
2023-03-28T06:46:56.240Z,3.00
2023-03-28T06:49:24.270Z,2.83
2023-03-28T06:52:10.526Z,3.13
2023-03-28T06:54:39.771Z,3.13
2023-03-28T06:57:08.023Z,3.07
2023-03-28T06:59:38.056Z,2.97
2023-03-28T07:02:08.241Z,3.00
2023-03-28T07:04:37.106Z,6.72
2023-03-28T07:07:05.244Z,6.33
2023-03-28T07:09:33.368Z,6.23
2023-03-28T07:12:08.465Z,3.70
2023-03-28T07:14:36.334Z,3.87
2023-03-28T07:17:04.105Z,3.83
2023-03-28T07:19:33.226Z,4.00
2023-03-28T07:22:01.363Z,4.07
2023-03-28T07:24:29.684Z,3.95
2023-03-28T07:27:15.343Z,4.05
2023-03-28T07:29:44.496Z,4.65
2023-03-28T07:32:12.839Z,5.00
2023-03-28T07:34:40.790Z,4.35
2023-03-28T07:37:10.791Z,4.68
2023-03-28T07:39:50.156Z,5.13
2023-03-28T07:42:23.449Z,5.00
2023-03-28T07:44:51.164Z,4.57
2023-03-28T07:47:18.857Z,5.10
2023-03-28T07:49:47.213Z,5.55
2023-03-28T07:52:15.316Z,4.72
2023-03-28T07:54:43.679Z,4.93
2023-03-28T07:57:11.500Z,4.95
2023-03-28T07:59:50.339Z,4.78
2023-03-28T08:02:18.418Z,4.97
2023-03-28T08:04:46.179Z,4.35
2023-03-28T08:07:16.904Z,4.38
2023-03-28T08:09:47.558Z,4.22
2023-03-28T08:12:20.315Z,4.10
2023-03-28T08:14:50.260Z,3.75
2023-03-28T08:17:23.192Z,4.13
2023-03-28T08:19:52.566Z,4.25
2023-03-28T08:22:49.940Z,3.60
2023-03-28T08:25:37.612Z,3.88
2023-03-28T08:28:06.625Z,3.40
2023-03-28T08:30:37.144Z,3.60
2023-03-28T08:33:05.910Z,3.40
2023-03-28T08:35:34.623Z,3.58
2023-03-28T08:38:11.316Z,3.08
2023-03-28T08:40:41.356Z,3.33
2023-03-28T08:43:26.458Z,3.08
2023-03-28T08:45:57.569Z,3.20
2023-03-28T08:48:28.128Z,3.03
2023-03-28T08:50:59.723Z,3.15
2023-03-28T08:53:34.211Z,3.10
2023-03-28T08:56:04.189Z,3.50
2023-03-28T08:58:35.837Z,2.97
2023-03-28T09:01:05.505Z,3.05
2023-03-28T09:03:34.696Z,3.42
2023-03-28T09:06:12.201Z,3.65
2023-03-28T09:09:11.361Z,3.25
2023-03-28T09:11:50.893Z,3.30
2023-03-28T09:14:30.425Z,3.28
2023-03-28T09:17:05.492Z,3.00
2023-03-28T09:19:48.376Z,3.30
2023-03-28T09:22:47.265Z,3.67
2023-03-28T09:25:24.993Z,3.10
2023-03-28T09:27:58.576Z,3.08
2023-03-28T09:30:31.060Z,3.35
2023-03-28T09:33:04.519Z,3.30
2023-03-28T09:35:33.372Z,3.47
2023-03-28T09:38:04.606Z,3.85
2023-03-28T09:40:34.501Z,3.55
2023-03-28T09:43:20.927Z,3.75
2023-03-28T09:46:12.661Z,4.70
2023-03-28T09:48:55.347Z,3.80
2023-03-28T09:51:26.612Z,3.53
2023-03-28T09:53:55.912Z,3.88
2023-03-28T09:56:27.451Z,3.47
2023-03-28T09:59:00.064Z,3.75
2023-03-28T10:01:51.503Z,3.95
2023-03-28T10:04:40.498Z,3.80
2023-03-28T10:07:34.765Z,3.60
2023-03-28T10:10:19.673Z,4.50
2023-03-28T10:12:50.477Z,4.50
2023-03-28T10:15:35.141Z,4.75
2023-03-28T10:18:22.465Z,4.55
2023-03-28T10:21:17.233Z,4.90
2023-03-28T10:23:54.315Z,4.40
2023-03-28T10:26:25.105Z,4.30
2023-03-28T10:28:54.527Z,4.13
2023-03-28T10:31:29.378Z,4.20
2023-03-28T10:34:25.718Z,5.00
2023-03-28T10:37:29.040Z,4.35
2023-03-28T10:40:29.868Z,4.55
2023-03-28T10:42:59.231Z,3.78
2023-03-28T10:45:41.594Z,4.57
2023-03-28T10:48:15.498Z,4.38
2023-03-28T10:50:45.312Z,4.50
2023-03-28T10:53:31.431Z,4.20
2023-03-28T10:56:14.231Z,4.35
2023-03-28T10:58:51.557Z,4.22
2023-03-28T11:01:32.665Z,4.75
2023-03-28T11:04:21.189Z,3.78
2023-03-28T11:06:53.002Z,3.70
2023-03-28T11:09:35.033Z,3.75
2023-03-28T11:12:43.904Z,3.70
2023-03-28T11:15:23.487Z,4.13
2023-03-28T11:18:08.504Z,3.78
2023-03-28T11:20:46.046Z,3.88
2023-03-28T11:23:38.547Z,4.05
2023-03-28T11:26:31.006Z,3.95
2023-03-28T11:29:40.460Z,3.55
2023-03-28T11:32:17.405Z,3.50
2023-03-28T11:34:51.610Z,3.30
2023-03-28T11:37:22.725Z,3.30
2023-03-28T11:39:53.712Z,3.47
2023-03-28T11:42:37.733Z,3.35
2023-03-28T11:45:27.993Z,4.47
2023-03-28T11:48:06.620Z,3.70
2023-03-28T11:50:48.261Z,4.03
2023-03-28T11:53:33.340Z,4.95
2023-03-28T11:56:10.970Z,4.50
2023-03-28T11:59:04.334Z,4.28
2023-03-28T12:01:34.853Z,3.72
2023-03-28T12:04:06.318Z,3.58
2023-03-28T12:06:37.338Z,4.05
2023-03-28T12:09:12.686Z,3.40
2023-03-28T12:11:43.650Z,3.65
2023-03-28T12:14:26.866Z,4.05
2023-03-28T12:16:56.834Z,3.80
2023-03-28T12:19:32.680Z,4.07
2023-03-28T12:22:10.094Z,4.00
2023-03-28T12:24:46.614Z,3.80
2023-03-28T12:27:31.419Z,3.60
2023-03-28T12:30:04.955Z,3.85
2023-03-28T12:32:40.565Z,3.78
2023-03-28T12:35:15.685Z,3.92
2023-03-28T12:38:08.070Z,3.90
2023-03-28T12:40:48.168Z,4.00
2023-03-28T12:43:18.352Z,4.20
2023-03-28T12:45:49.810Z,4.05
2023-03-28T12:48:20.654Z,3.95
2023-03-28T12:50:52.057Z,3.80
2023-03-28T12:53:23.738Z,4.10
2023-03-28T12:55:52.809Z,3.70
2023-03-28T12:58:28.934Z,3.70
2023-03-28T13:01:37.999Z,3.50
2023-03-28T13:04:27.406Z,4.15
2023-03-28T13:07:12.398Z,3.65
2023-03-28T13:09:49.681Z,3.53
2023-03-28T13:12:29.060Z,4.03
2023-03-28T13:15:01.887Z,4.32
2023-03-28T13:17:34.165Z,3.47
2023-03-28T13:20:14.161Z,4.45
2023-03-28T13:22:44.273Z,3.63
2023-03-28T13:25:25.627Z,4.07
2023-03-28T13:27:54.918Z,4.28
2023-03-28T13:30:26.067Z,4.63
2023-03-28T13:32:57.105Z,4.90
2023-03-28T13:35:46.358Z,4.63
2023-03-28T13:38:25.526Z,4.80
2023-03-28T13:40:55.991Z,4.60
2023-03-28T13:43:26.590Z,4.22
2023-03-28T13:45:58.746Z,4.15
2023-03-28T13:48:33.482Z,4.07
2023-03-28T13:51:06.529Z,3.67
2023-03-28T13:53:44.652Z,4.30
2023-03-28T13:56:23.307Z,3.90
2023-03-28T13:58:53.012Z,3.78
2023-03-28T14:01:24.330Z,3.70
2023-03-28T14:03:54.715Z,3.80
2023-03-28T14:06:24.517Z,3.67
2023-03-28T14:08:54.037Z,4.07
2023-03-28T14:11:25.072Z,3.65
2023-03-28T14:14:02.094Z,4.10
2023-03-28T14:16:30.305Z,4.18
2023-03-28T14:19:02.462Z,4.10
2023-03-28T14:21:30.224Z,3.83
2023-03-28T14:24:00.137Z,4.00
2023-03-28T14:26:29.439Z,4.35
2023-03-28T14:29:01.024Z,4.20
2023-03-28T14:31:31.419Z,3.90
2023-03-28T14:34:01.108Z,3.75
2023-03-28T14:36:31.452Z,3.70
2023-03-28T14:39:05.354Z,4.00
2023-03-28T14:41:35.666Z,4.10
2023-03-28T14:44:06.630Z,3.97
2023-03-28T14:46:34.986Z,3.92
2023-03-28T14:49:07.223Z,3.75
2023-03-28T14:51:42.646Z,4.20
2023-03-28T14:54:15.773Z,3.90
2023-03-28T14:56:44.438Z,3.80
2023-03-28T14:59:15.812Z,4.00
2023-03-28T15:01:45.344Z,3.90
2023-03-28T15:04:14.851Z,4.13
2023-03-28T15:06:42.929Z,4.20
2023-03-28T15:09:12.389Z,3.78
2023-03-28T15:11:44.100Z,3.83
2023-03-28T15:14:15.969Z,3.80
2023-03-28T15:16:45.916Z,4.40
2023-03-28T15:19:19.885Z,3.72
2023-03-28T15:21:53.942Z,3.67
2023-03-28T15:24:21.867Z,3.90
2023-03-28T15:26:51.677Z,3.70
2023-03-28T15:29:20.245Z,3.72
2023-03-28T15:31:48.472Z,3.75
2023-03-28T15:34:22.499Z,3.83
2023-03-28T15:36:52.417Z,3.60
2023-03-28T15:39:24.160Z,4.40
2023-03-28T15:41:54.648Z,4.13
2023-03-28T15:44:31.023Z,4.07
2023-03-28T15:47:01.643Z,3.95
2023-03-28T15:49:35.616Z,9.02
2023-03-28T15:52:06.498Z,24.40
2023-03-28T15:54:39.842Z,15.90
2023-03-28T15:57:07.884Z,9.18
2023-03-28T15:59:39.152Z,6.85
2023-03-28T16:02:21.425Z,6.25
2023-03-28T16:05:01.722Z,3.40
2023-03-28T16:07:34.433Z,4.80
2023-03-28T16:10:02.252Z,4.78
2023-03-28T16:12:30.001Z,4.97
2023-03-28T16:15:16.701Z,4.30
2023-03-28T16:17:55.452Z,7.90
2023-03-28T16:20:41.182Z,28.52
2023-03-28T16:23:08.919Z,4.78
2023-03-28T16:25:36.821Z,4.50
2023-03-28T16:28:04.651Z,3.90
2023-03-28T16:30:36.014Z,10.70
2023-03-28T16:33:05.361Z,16.73
2023-03-28T16:35:34.046Z,5.60
2023-03-28T16:38:03.129Z,4.55
2023-03-28T16:40:30.819Z,5.03
2023-03-28T16:42:58.531Z,4.88
2023-03-28T16:45:26.293Z,3.85
2023-03-28T16:47:54.075Z,3.97
2023-03-28T16:50:21.824Z,4.22
2023-03-28T16:52:49.944Z,4.43
2023-03-28T16:55:20.418Z,4.78
2023-03-28T16:57:48.927Z,7.15
2023-03-28T17:00:19.956Z,5.00
2023-03-28T17:02:48.443Z,5.10
2023-03-28T17:05:17.141Z,7.07
2023-03-28T17:07:45.234Z,5.43
2023-03-28T17:10:12.973Z,4.75
2023-03-28T17:12:42.287Z,4.40
2023-03-28T17:15:10.810Z,4.40
2023-03-28T17:17:38.573Z,5.30
2023-03-28T17:20:07.684Z,4.10
2023-03-28T17:22:36.767Z,4.07
2023-03-28T17:25:05.147Z,4.00
2023-03-28T17:27:32.825Z,4.15
2023-03-28T17:30:02.050Z,4.55
2023-03-28T17:32:30.027Z,4.40
2023-03-28T17:34:58.488Z,5.00
2023-03-28T17:37:26.350Z,5.07
2023-03-28T17:39:54.412Z,4.97
2023-03-28T17:42:22.758Z,5.55
2023-03-28T17:44:50.765Z,7.80
2023-03-28T17:47:20.155Z,4.78
2023-03-28T17:49:47.834Z,5.28
2023-03-28T17:52:16.450Z,4.82
2023-03-28T17:54:44.512Z,5.03
2023-03-28T17:57:12.572Z,4.78
2023-03-28T17:59:40.400Z,5.20
2023-03-28T18:02:08.330Z,4.82
2023-03-28T18:04:37.462Z,4.80
2023-03-28T18:07:17.915Z,4.57
2023-03-28T18:09:46.319Z,4.82
2023-03-28T18:12:14.072Z,18.98
2023-03-28T18:14:41.814Z,6.07
2023-03-28T18:17:10.209Z,6.45
2023-03-28T18:19:39.863Z,5.25
2023-03-28T18:22:08.225Z,5.90
2023-03-28T18:24:36.024Z,4.90
2023-03-28T18:27:03.860Z,5.35
2023-03-28T18:29:32.130Z,5.90
2023-03-28T18:32:00.569Z,5.60
2023-03-28T18:34:28.375Z,5.53
2023-03-28T18:37:00.024Z,5.80
2023-03-28T18:39:29.116Z,5.93
2023-03-28T18:41:56.986Z,6.35
2023-03-28T18:44:24.690Z,5.22
2023-03-28T18:46:54.807Z,5.20
2023-03-28T18:49:22.846Z,5.40
2023-03-28T18:51:52.364Z,5.20
2023-03-28T18:54:21.571Z,5.40
2023-03-28T18:56:49.718Z,5.32
2023-03-28T18:59:17.515Z,5.63
2023-03-28T19:01:51.151Z,5.93
2023-03-28T19:04:19.374Z,5.60
2023-03-28T19:06:47.556Z,5.85
2023-03-28T19:09:15.333Z,6.05
2023-03-28T19:11:44.329Z,5.78
2023-03-28T19:14:12.211Z,5.70
2023-03-28T19:16:40.966Z,5.40
2023-03-28T19:19:08.645Z,5.43
2023-03-28T19:21:36.348Z,5.35
2023-03-28T19:24:04.114Z,5.85
2023-03-28T19:26:31.758Z,5.40
2023-03-28T19:29:01.420Z,5.47
2023-03-28T19:31:29.206Z,5.63
2023-03-28T19:33:56.846Z,5.35
2023-03-28T19:36:25.035Z,5.28
2023-03-28T19:38:53.241Z,5.15
2023-03-28T19:41:22.963Z,5.20
2023-03-28T19:43:51.171Z,5.47
2023-03-28T19:46:25.032Z,5.38
2023-03-28T19:48:57.701Z,5.60
2023-03-28T19:51:25.778Z,5.70
2023-03-28T19:53:53.708Z,5.35
2023-03-28T19:56:23.031Z,5.85
2023-03-28T19:58:52.256Z,5.95
2023-03-28T20:01:21.675Z,5.25
2023-03-28T20:03:52.811Z,5.32
2023-03-28T20:06:22.316Z,5.55
2023-03-28T20:08:50.662Z,5.22
2023-03-28T20:11:18.591Z,5.18
2023-03-28T20:13:46.337Z,5.25
2023-03-28T20:16:14.642Z,4.90
2023-03-28T20:18:44.464Z,5.30
2023-03-28T20:21:13.465Z,4.88
2023-03-28T20:23:41.541Z,5.10
2023-03-28T20:26:14.157Z,5.15
2023-03-28T20:28:42.106Z,4.65
2023-03-28T20:31:11.912Z,4.88
2023-03-28T20:33:40.813Z,4.70
2023-03-28T20:36:10.099Z,5.63
2023-03-28T20:38:38.597Z,5.13
2023-03-28T20:41:10.617Z,5.20
2023-03-28T20:43:41.000Z,5.15
2023-03-28T20:46:09.601Z,5.95
2023-03-28T20:48:37.262Z,5.30
2023-03-28T20:51:14.320Z,6.25
2023-03-28T20:53:44.739Z,5.40
2023-03-28T20:56:13.531Z,5.30
2023-03-28T20:58:42.719Z,5.22
2023-03-28T21:01:12.729Z,5.05
2023-03-28T21:03:48.179Z,5.47
2023-03-28T21:06:16.976Z,5.50
2023-03-28T21:08:47.587Z,5.40
2023-03-28T21:11:16.293Z,5.40
2023-03-28T21:13:44.490Z,6.10
2023-03-28T21:16:14.135Z,5.10
2023-03-28T21:18:42.426Z,6.18
2023-03-28T21:21:11.332Z,5.43
2023-03-28T21:23:39.863Z,5.40
2023-03-28T21:26:11.177Z,5.20
2023-03-28T21:28:39.310Z,5.15
2023-03-28T21:31:09.046Z,5.10
2023-03-28T21:33:37.568Z,5.30
2023-03-28T21:36:07.095Z,6.57
2023-03-28T21:38:35.450Z,5.63
2023-03-28T21:41:03.483Z,5.30
2023-03-28T21:43:32.950Z,6.60
2023-03-28T21:46:00.880Z,10.43
2023-03-28T21:48:29.571Z,8.82
2023-03-28T21:50:59.798Z,8.63
2023-03-28T21:53:29.317Z,9.88
2023-03-28T21:55:57.023Z,8.55
2023-03-28T21:58:25.090Z,7.53
2023-03-28T22:00:55.445Z,7.80
2023-03-28T22:03:24.019Z,6.80
2023-03-28T22:05:52.805Z,6.38
2023-03-28T22:08:21.387Z,5.70
2023-03-28T22:10:51.320Z,5.32
2023-03-28T22:13:20.265Z,5.70
2023-03-28T22:15:49.565Z,5.30
2023-03-28T22:18:19.375Z,6.28
2023-03-28T22:20:53.157Z,6.18
2023-03-28T22:23:21.701Z,5.30
2023-03-28T22:25:49.686Z,5.60
2023-03-28T22:28:18.549Z,5.18
2023-03-28T22:30:46.404Z,5.40
2023-03-28T22:33:14.112Z,5.32
2023-03-28T22:35:43.342Z,5.25
2023-03-28T22:38:10.984Z,5.45
2023-03-28T22:40:39.301Z,5.53
2023-03-28T22:43:07.137Z,6.38
2023-03-28T22:45:34.792Z,7.10
2023-03-28T22:48:03.296Z,7.30
2023-03-28T22:50:33.471Z,7.60
2023-03-28T22:53:02.804Z,7.97
2023-03-28T22:55:30.469Z,7.28
2023-03-28T22:57:58.179Z,6.97
2023-03-28T23:00:27.092Z,8.15
2023-03-28T23:02:54.719Z,7.10
2023-03-28T23:05:22.776Z,6.75
2023-03-28T23:07:51.082Z,6.78
2023-03-28T23:10:20.872Z,6.80
2023-03-28T23:12:49.133Z,6.68
2023-03-28T23:15:17.259Z,6.93
2023-03-28T23:17:45.653Z,7.88
2023-03-28T23:20:15.941Z,7.47
2023-03-28T23:22:45.648Z,7.18
2023-03-28T23:25:14.922Z,6.90
2023-03-28T23:27:44.111Z,7.18
2023-03-28T23:30:13.615Z,7.30
2023-03-28T23:32:41.767Z,7.60
2023-03-28T23:35:11.585Z,7.15
2023-03-28T23:37:39.734Z,7.47
2023-03-28T23:40:14.019Z,7.53
2023-03-28T23:42:45.022Z,7.10
2023-03-28T23:45:14.568Z,7.35
2023-03-28T23:47:42.992Z,7.93
2023-03-28T23:50:12.050Z,8.25
2023-03-28T23:52:40.050Z,7.70
2023-03-28T23:55:08.739Z,7.88
2023-03-28T23:57:36.732Z,7.95
